createdAt,value
2023-01-04T00:02:12.468Z,95.60
2023-01-04T00:04:40.896Z,95.20
2023-01-04T00:07:09.215Z,95.30
2023-01-04T00:09:37.556Z,95.10
2023-01-04T00:12:08.383Z,94.80
2023-01-04T00:14:40.860Z,94.70
2023-01-04T00:17:09.211Z,94.80
2023-01-04T00:19:37.551Z,94.80
2023-01-04T00:22:09.630Z,94.70
2023-01-04T00:24:37.965Z,94.70
2023-01-04T00:27:06.744Z,94.60
2023-01-04T00:29:35.034Z,94.80
2023-01-04T00:32:05.065Z,94.70
2023-01-04T00:34:33.387Z,94.60
2023-01-04T00:37:01.726Z,94.60
2023-01-04T00:39:30.312Z,94.60
2023-01-04T00:42:05.040Z,94.60
2023-01-04T00:44:34.376Z,94.60
2023-01-04T00:47:04.380Z,94.60
2023-01-04T00:49:32.775Z,94.70
2023-01-04T00:52:01.111Z,94.60
2023-01-04T00:54:29.469Z,94.60
2023-01-04T00:56:58.428Z,94.60
2023-01-04T00:59:26.783Z,94.60
2023-01-04T01:01:55.158Z,94.60
2023-01-04T01:04:25.082Z,94.70
2023-01-04T01:06:56.264Z,94.70
2023-01-04T01:09:24.607Z,94.70
2023-01-04T01:11:57.187Z,94.70
2023-01-04T01:14:26.078Z,94.70
2023-01-04T01:16:57.343Z,94.80
2023-01-04T01:19:29.754Z,94.80
2023-01-04T01:22:00.928Z,94.80
2023-01-04T01:24:29.300Z,94.80
2023-01-04T01:27:03.010Z,94.70
2023-01-04T01:29:31.366Z,94.70
2023-01-04T01:31:59.762Z,94.80
2023-01-04T01:34:29.534Z,94.80
2023-01-04T01:37:02.830Z,94.80
2023-01-04T01:39:31.183Z,94.80
2023-01-04T01:41:59.635Z,94.80
2023-01-04T01:44:58.189Z,94.80
2023-01-04T01:47:36.470Z,94.80
2023-01-04T01:50:07.009Z,94.80
2023-01-04T01:52:37.071Z,94.80
2023-01-04T01:55:06.489Z,94.80
2023-01-04T01:57:35.890Z,94.90
2023-01-04T02:00:06.602Z,94.90
2023-01-04T02:02:37.830Z,94.90
2023-01-04T02:05:13.466Z,95.00
2023-01-04T02:07:44.119Z,94.90
2023-01-04T02:10:15.622Z,94.90
2023-01-04T02:12:44.127Z,94.90
2023-01-04T02:15:12.669Z,95.00
2023-01-04T02:17:43.245Z,95.10
2023-01-04T02:20:33.269Z,95.10
2023-01-04T02:23:24.756Z,95.10
2023-01-04T02:26:41.992Z,95.10
2023-01-04T02:29:51.238Z,95.00
2023-01-04T02:32:24.466Z,95.00
2023-01-04T02:34:58.791Z,95.00
2023-01-04T02:37:29.723Z,95.00
2023-01-04T02:40:04.713Z,95.00
2023-01-04T02:42:54.423Z,94.90
2023-01-04T02:45:25.007Z,94.90
2023-01-04T02:48:12.159Z,95.00
2023-01-04T02:50:51.227Z,94.90
2023-01-04T02:53:20.758Z,95.00
2023-01-04T02:55:53.574Z,94.90
2023-01-04T02:58:33.717Z,95.00
2023-01-04T03:01:22.372Z,95.00
2023-01-04T03:04:15.550Z,95.00
2023-01-04T03:06:48.305Z,95.00
2023-01-04T03:09:19.110Z,95.00
2023-01-04T03:12:06.475Z,95.00
2023-01-04T03:14:35.942Z,95.00
2023-01-04T03:17:06.556Z,95.10
2023-01-04T03:19:54.855Z,95.00
2023-01-04T03:22:47.151Z,95.00
2023-01-04T03:25:37.407Z,95.00
2023-01-04T03:28:23.151Z,95.00
2023-01-04T03:31:12.327Z,95.00
2023-01-04T03:33:58.576Z,95.10
2023-01-04T03:36:35.703Z,95.00
2023-01-04T03:39:21.873Z,95.10
2023-01-04T03:42:08.298Z,95.10
2023-01-04T03:45:04.347Z,95.10
2023-01-04T03:48:03.901Z,95.10
2023-01-04T03:50:34.307Z,95.50
2023-01-04T03:53:04.108Z,95.30
2023-01-04T03:55:32.462Z,95.20
2023-01-04T03:58:03.651Z,95.20
2023-01-04T04:00:34.875Z,95.20
2023-01-04T04:03:08.098Z,95.20
2023-01-04T04:05:56.028Z,95.20
2023-01-04T04:08:25.711Z,95.20
2023-01-04T04:10:57.553Z,95.30
2023-01-04T04:13:25.873Z,95.30
2023-01-04T04:15:54.398Z,95.30
2023-01-04T04:18:22.759Z,95.30
2023-01-04T04:20:58.038Z,95.30
2023-01-04T04:23:27.705Z,95.40
2023-01-04T04:25:56.054Z,95.40
2023-01-04T04:28:24.458Z,95.40
2023-01-04T04:30:53.149Z,95.40
2023-01-04T04:33:21.464Z,95.50
2023-01-04T04:35:54.598Z,95.40
2023-01-04T04:38:23.006Z,95.40
2023-01-04T04:41:10.386Z,95.40
2023-01-04T04:43:38.740Z,95.40
2023-01-04T04:46:07.092Z,95.40
2023-01-04T04:48:35.553Z,95.50
2023-01-04T04:51:03.871Z,95.50
2023-01-04T04:53:32.177Z,95.50
2023-01-04T04:56:01.864Z,95.50
2023-01-04T04:58:30.575Z,95.50
2023-01-04T05:00:58.948Z,95.50
2023-01-04T05:03:27.443Z,95.60
2023-01-04T05:05:55.809Z,95.60
2023-01-04T05:08:24.168Z,95.60
2023-01-04T05:10:52.507Z,95.60
2023-01-04T05:13:21.182Z,95.50
2023-01-04T05:15:51.042Z,95.60
2023-01-04T05:18:20.616Z,95.50
2023-01-04T05:20:49.067Z,95.60
2023-01-04T05:23:18.253Z,95.60
2023-01-04T05:25:46.602Z,95.70
2023-01-04T05:28:14.900Z,95.60
2023-01-04T05:30:53.378Z,95.60
2023-01-04T05:33:24.092Z,95.60
2023-01-04T05:35:52.796Z,95.70
2023-01-04T05:38:21.156Z,95.60
2023-01-04T05:40:52.209Z,95.70
2023-01-04T05:43:23.723Z,95.60
2023-01-04T05:45:54.624Z,95.70
2023-01-04T05:48:26.208Z,95.70
2023-01-04T05:50:54.690Z,95.70
2023-01-04T05:53:22.997Z,95.70
2023-01-04T05:55:51.438Z,95.70
2023-01-04T05:58:19.789Z,95.70
2023-01-04T06:00:48.092Z,95.80
2023-01-04T06:03:17.797Z,95.70
2023-01-04T06:05:50.381Z,95.80
2023-01-04T06:08:21.553Z,95.70
2023-01-04T06:10:54.211Z,95.80
2023-01-04T06:13:22.634Z,95.80
2023-01-04T06:15:51.019Z,95.80
2023-01-04T06:18:20.866Z,95.80
2023-01-04T06:20:51.598Z,95.80
2023-01-04T06:23:22.927Z,95.80
2023-01-04T06:25:51.284Z,95.90
2023-01-04T06:28:19.591Z,95.90
2023-01-04T06:30:47.913Z,95.80
2023-01-04T06:33:18.747Z,95.80
2023-01-04T06:35:57.086Z,95.80
2023-01-04T06:38:31.199Z,95.70
2023-01-04T06:40:59.633Z,95.70
2023-01-04T06:43:27.989Z,95.70
2023-01-04T06:46:00.505Z,95.60
2023-01-04T06:48:28.843Z,95.60
2023-01-04T06:51:00.988Z,95.60
2023-01-04T06:53:29.360Z,95.60
2023-01-04T06:55:57.674Z,95.60
2023-01-04T06:58:25.979Z,95.50
2023-01-04T07:00:54.469Z,95.50
2023-01-04T07:03:23.223Z,95.50
2023-01-04T07:05:52.028Z,95.60
2023-01-04T07:08:21.835Z,95.50
2023-01-04T07:10:51.933Z,95.50
2023-01-04T07:13:20.299Z,95.50
2023-01-04T07:15:48.655Z,95.50
2023-01-04T07:18:16.963Z,95.60
2023-01-04T07:20:45.452Z,95.60
2023-01-04T07:23:16.564Z,95.60
2023-01-04T07:25:47.371Z,95.60
2023-01-04T07:28:36.886Z,95.60
2023-01-04T07:31:06.533Z,95.60
2023-01-04T07:33:34.911Z,95.60
2023-01-04T07:36:04.606Z,95.80
2023-01-04T07:38:33.711Z,95.70
2023-01-04T07:41:04.606Z,95.90
2023-01-04T07:43:32.938Z,96.20
2023-01-04T07:46:01.677Z,96.40
2023-01-04T07:48:30.059Z,96.20
2023-01-04T07:51:01.097Z,96.30
2023-01-04T07:53:30.914Z,96.10
2023-01-04T07:55:59.486Z,95.90
2023-01-04T07:58:32.601Z,95.70
2023-01-04T08:01:07.688Z,95.50
2023-01-04T08:03:36.410Z,95.40
2023-01-04T08:06:08.191Z,95.40
2023-01-04T08:08:36.607Z,95.40
2023-01-04T08:11:05.232Z,95.40
2023-01-04T08:13:37.351Z,95.40
2023-01-04T08:16:18.812Z,95.40
2023-01-04T08:18:47.263Z,95.40
2023-01-04T08:21:15.739Z,95.40
2023-01-04T08:23:44.161Z,95.40
2023-01-04T08:26:16.595Z,95.40
2023-01-04T08:28:46.408Z,95.30
2023-01-04T08:31:16.305Z,95.30
2023-01-04T08:33:46.283Z,95.30
2023-01-04T08:36:24.218Z,95.30
2023-01-04T08:39:00.818Z,95.30
2023-01-04T08:41:56.653Z,95.20
2023-01-04T08:44:19.951Z,95.20
2023-01-04T08:46:48.605Z,95.20
2023-01-04T08:49:17.249Z,95.20
2023-01-04T08:51:45.755Z,95.20
2023-01-04T08:54:19.231Z,95.20
2023-01-04T08:56:47.681Z,95.20
2023-01-04T08:59:16.148Z,95.20
2023-01-04T09:01:48.989Z,95.20
2023-01-04T09:04:17.793Z,95.20
2023-01-04T09:06:46.238Z,95.20
2023-01-04T09:09:20.061Z,95.40
2023-01-04T09:11:48.427Z,95.70
2023-01-04T09:14:16.709Z,95.80
2023-01-04T09:16:45.252Z,95.80
2023-01-04T09:19:21.435Z,95.80
2023-01-04T09:21:50.470Z,95.80
2023-01-04T09:24:18.907Z,95.80
2023-01-04T09:26:47.914Z,95.80
2023-01-04T09:29:16.354Z,95.80
2023-01-04T09:31:47.603Z,95.70
2023-01-04T09:34:25.646Z,95.70
2023-01-04T09:36:53.971Z,95.70
2023-01-04T09:39:25.267Z,95.70
2023-01-04T09:41:57.153Z,95.70
2023-01-04T09:47:31.620Z,95.60
2023-01-04T09:50:03.640Z,95.60
2023-01-04T09:52:42.007Z,95.60
2023-01-04T09:55:37.626Z,95.60
2023-01-04T09:58:06.923Z,95.50
2023-01-04T10:00:43.375Z,95.60
2023-01-04T10:03:15.559Z,95.60
2023-01-04T10:05:45.640Z,95.60
2023-01-04T10:08:16.304Z,95.70
2023-01-04T10:10:53.395Z,95.90
2023-01-04T10:13:29.609Z,95.90
2023-01-04T10:16:01.046Z,95.90
2023-01-04T10:19:50.875Z,95.90
2023-01-04T10:21:41.360Z,96.30
2023-01-04T10:24:24.085Z,96.00
2023-01-04T10:26:52.793Z,96.00
2023-01-04T10:29:31.103Z,96.00
2023-01-04T10:32:01.521Z,96.10
2023-01-04T10:34:30.592Z,96.10
2023-01-04T10:37:01.164Z,96.10
2023-01-04T10:39:32.957Z,96.10
2023-01-04T10:42:05.166Z,96.10
2023-01-04T10:44:44.360Z,96.10
2023-01-04T10:47:14.331Z,96.10
2023-01-04T10:49:51.490Z,96.20
2023-01-04T10:52:21.616Z,96.10
2023-01-04T10:54:51.313Z,96.10
2023-01-04T10:57:24.718Z,96.20
2023-01-04T10:59:54.803Z,96.10
2023-01-04T11:02:29.601Z,96.10
2023-01-04T11:05:00.691Z,96.10
2023-01-04T11:07:35.322Z,96.10
2023-01-04T11:10:08.258Z,96.10
2023-01-04T11:12:36.552Z,96.10
2023-01-04T11:15:05.445Z,96.10
2023-01-04T11:17:33.749Z,96.00
2023-01-04T11:20:02.091Z,96.00
2023-01-04T11:22:35.477Z,96.00
2023-01-04T11:25:34.654Z,96.00
2023-01-04T11:27:55.590Z,96.00
2023-01-04T11:30:24.862Z,96.00
2023-01-04T11:32:56.078Z,96.00
2023-01-04T11:35:42.788Z,95.90
2023-01-04T11:38:17.320Z,96.00
2023-01-04T11:41:05.583Z,96.00
2023-01-04T11:43:34.402Z,96.00
2023-01-04T11:46:08.480Z,96.00
2023-01-04T11:48:41.223Z,96.00
2023-01-04T11:51:21.192Z,96.00
2023-01-04T11:53:59.746Z,96.00
2023-01-04T11:56:29.255Z,96.00
2023-01-04T11:59:17.731Z,96.00
2023-01-04T12:01:52.719Z,96.00
2023-01-04T12:04:22.362Z,96.00
2023-01-04T12:06:52.245Z,96.00
2023-01-04T12:09:25.115Z,96.00
2023-01-04T12:11:54.032Z,96.00
2023-01-04T12:14:24.621Z,96.00
2023-01-04T12:17:02.099Z,96.00
2023-01-04T12:19:33.211Z,96.00
2023-01-04T12:22:03.752Z,96.10
2023-01-04T12:24:34.115Z,96.10
2023-01-04T12:27:02.603Z,96.10
2023-01-04T12:29:56.074Z,96.10
2023-01-04T12:32:44.074Z,96.10
2023-01-04T12:36:02.078Z,96.10
2023-01-04T12:39:07.789Z,96.10
2023-01-04T12:42:17.650Z,96.10
2023-01-04T12:45:12.634Z,96.10
2023-01-04T12:47:59.863Z,96.40
2023-01-04T12:50:29.445Z,96.30
2023-01-04T12:53:19.864Z,96.30
2023-01-04T12:55:56.218Z,96.40
2023-01-04T12:59:23.527Z,96.60
2023-01-04T13:01:33.329Z,96.50
2023-01-04T13:04:06.011Z,96.40
2023-01-04T13:06:36.850Z,96.40
2023-01-04T13:09:10.135Z,96.40
2023-01-04T13:11:49.275Z,96.30
2023-01-04T13:14:20.311Z,96.30
2023-01-04T13:16:52.708Z,96.30
2023-01-04T13:19:22.452Z,96.70
2023-01-04T13:21:51.964Z,96.30
2023-01-04T13:24:23.470Z,96.30
2023-01-04T13:26:51.991Z,96.40
2023-01-04T13:29:25.053Z,96.50
2023-01-04T13:31:58.467Z,96.50
2023-01-04T13:34:28.746Z,96.50
2023-01-04T13:36:59.936Z,96.60
2023-01-04T13:39:28.374Z,96.60
2023-01-04T13:41:56.891Z,96.60
2023-01-04T13:45:17.889Z,96.70
2023-01-04T13:47:35.381Z,96.70
2023-01-04T13:50:03.699Z,96.60
2023-01-04T13:52:59.895Z,96.80
2023-01-04T13:55:22.144Z,96.70
2023-01-04T13:57:54.867Z,96.80
2023-01-04T14:00:27.945Z,96.80
2023-01-04T14:03:08.433Z,96.80
2023-01-04T14:05:37.156Z,96.90
2023-01-04T14:08:09.833Z,96.90
2023-01-04T14:10:38.347Z,96.90
2023-01-04T14:13:06.859Z,96.90
2023-01-04T14:15:35.223Z,96.90
2023-01-04T14:18:10.009Z,97.00
2023-01-04T14:20:39.045Z,97.10
2023-01-04T14:23:26.137Z,97.00
2023-01-04T14:25:57.403Z,97.10
2023-01-04T14:28:54.283Z,97.10
2023-01-04T14:31:34.064Z,97.00
2023-01-04T14:34:13.444Z,96.90
2023-01-04T14:36:42.120Z,96.90
2023-01-04T14:39:19.430Z,96.80
2023-01-04T14:42:00.231Z,96.80
2023-01-04T14:44:35.980Z,96.80
2023-01-04T14:47:07.110Z,96.70
2023-01-04T14:49:36.836Z,96.70
2023-01-04T14:52:10.049Z,96.70
2023-01-04T14:54:39.852Z,96.70
2023-01-04T14:57:08.394Z,96.60
2023-01-04T14:59:36.711Z,96.60
2023-01-04T15:02:05.241Z,96.60
2023-01-04T15:04:33.732Z,96.60
2023-01-04T15:07:03.436Z,96.50
2023-01-04T15:09:31.787Z,96.50
2023-01-04T15:12:00.152Z,96.50
2023-01-04T15:14:28.518Z,96.50
2023-01-04T15:16:56.926Z,96.50
2023-01-04T15:19:25.304Z,96.50
2023-01-04T15:21:53.680Z,96.50
2023-01-04T15:24:23.637Z,96.50
2023-01-04T15:26:57.669Z,96.50
2023-01-04T15:29:28.845Z,96.50
2023-01-04T15:31:57.203Z,96.50
2023-01-04T15:34:25.623Z,96.40
2023-01-04T15:36:56.439Z,96.80
2023-01-04T15:39:26.202Z,96.40
2023-01-04T15:42:11.979Z,96.40
2023-01-04T15:44:46.444Z,96.50
2023-01-04T15:47:14.798Z,96.50
2023-01-04T15:49:43.194Z,96.50
2023-01-04T15:52:12.756Z,96.50
2023-01-04T15:54:42.481Z,96.50
2023-01-04T15:57:10.880Z,96.50
2023-01-04T15:59:40.893Z,96.50
2023-01-04T16:02:11.284Z,96.50
2023-01-04T16:04:39.802Z,96.50
2023-01-04T16:07:08.244Z,96.50
2023-01-04T16:09:37.756Z,96.40
2023-01-04T16:12:25.888Z,96.40
2023-01-04T16:14:54.742Z,96.40
2023-01-04T16:17:23.151Z,96.50
2023-01-04T16:19:51.504Z,96.50
2023-01-04T16:22:19.907Z,96.40
2023-01-04T16:27:39.154Z,96.50
2023-01-04T16:30:09.199Z,96.40
2023-01-04T16:32:37.732Z,96.10
2023-01-04T16:35:06.549Z,96.10
2023-01-04T16:37:34.851Z,95.90
2023-01-04T16:40:08.220Z,95.90
2023-01-04T16:42:38.864Z,96.00
2023-01-04T16:45:12.570Z,96.00
2023-01-04T16:47:42.759Z,96.10
2023-01-04T16:50:12.086Z,96.10
2023-01-04T16:52:40.702Z,96.20
2023-01-04T16:55:12.535Z,96.20
2023-01-04T16:57:43.342Z,96.20
2023-01-04T17:00:13.029Z,96.30
2023-01-04T17:02:41.424Z,96.80
2023-01-04T17:05:10.399Z,97.50
2023-01-04T17:07:41.839Z,97.80
2023-01-04T17:10:10.802Z,98.00
2023-01-04T17:12:48.346Z,97.60
2023-01-04T17:18:07.744Z,97.30
2023-01-04T17:20:40.143Z,97.20
2023-01-04T17:23:08.703Z,97.20
2023-01-04T17:25:39.760Z,97.20
2023-01-04T17:28:08.251Z,97.20
2023-01-04T17:30:42.329Z,97.10
2023-01-04T17:33:11.022Z,97.10
2023-01-04T17:35:39.520Z,97.00
2023-01-04T17:38:08.337Z,96.90
2023-01-04T17:40:36.983Z,96.90
2023-01-04T17:43:05.578Z,96.90
2023-01-04T17:45:34.218Z,96.90
2023-01-04T17:48:05.625Z,96.90
2023-01-04T17:50:36.906Z,96.90
2023-01-04T17:53:08.503Z,96.90
2023-01-04T17:55:37.134Z,96.90
2023-01-04T17:58:11.994Z,96.90
2023-01-04T18:00:44.046Z,96.90
2023-01-04T18:03:14.020Z,96.90
2023-01-04T18:05:51.868Z,96.90
2023-01-04T18:08:27.581Z,96.90
2023-01-04T18:11:09.720Z,96.90
2023-01-04T18:13:43.125Z,97.00
2023-01-04T18:16:23.765Z,97.00
2023-01-04T18:18:54.911Z,97.00
2023-01-04T18:21:28.480Z,97.30
2023-01-04T18:27:20.043Z,97.00
2023-01-04T18:29:34.968Z,97.00
2023-01-04T18:32:03.358Z,97.00
2023-01-04T18:34:33.412Z,97.00
2023-01-04T18:37:01.904Z,97.00
2023-01-04T18:39:30.397Z,97.00
2023-01-04T18:41:58.935Z,97.00
2023-01-04T18:44:35.818Z,97.00
2023-01-04T18:47:07.871Z,97.00
2023-01-04T18:49:37.839Z,97.00
2023-01-04T18:52:06.457Z,97.00
2023-01-04T18:54:34.966Z,97.00
2023-01-04T18:57:03.361Z,97.10
2023-01-04T18:59:34.822Z,97.10
2023-01-04T19:02:03.900Z,97.20
2023-01-04T19:04:33.978Z,97.30
2023-01-04T19:07:03.705Z,97.30
2023-01-04T19:09:32.211Z,97.30
2023-01-04T19:12:00.747Z,97.30
2023-01-04T19:14:32.007Z,97.50
2023-01-04T19:17:00.463Z,97.50
2023-01-04T19:19:28.831Z,97.50
2023-01-04T19:21:57.249Z,97.40
2023-01-04T19:24:27.419Z,97.80
2023-01-04T19:27:02.538Z,97.50
2023-01-04T19:29:31.209Z,97.60
2023-01-04T19:31:59.774Z,97.60
2023-01-04T19:34:28.265Z,97.60
2023-01-04T19:36:56.682Z,97.70
2023-01-04T19:39:26.590Z,97.70
2023-01-04T19:42:01.728Z,97.70
2023-01-04T19:44:30.200Z,97.80
2023-01-04T19:46:58.684Z,97.70
2023-01-04T19:49:27.481Z,97.70
2023-01-04T19:51:58.701Z,97.70
2023-01-04T19:54:28.899Z,97.80
2023-01-04T19:56:57.405Z,97.80
2023-01-04T19:59:28.447Z,97.70
2023-01-04T20:01:56.924Z,97.80
2023-01-04T20:04:32.171Z,97.70
2023-01-04T20:07:00.635Z,97.80
2023-01-04T20:09:31.995Z,97.80
2023-01-04T20:12:00.866Z,97.80
2023-01-04T20:14:30.314Z,97.70
2023-01-04T20:16:58.855Z,97.60
2023-01-04T20:19:27.593Z,97.50
2023-01-04T20:21:56.082Z,97.50
2023-01-04T20:24:24.589Z,97.40
2023-01-04T20:26:56.261Z,97.40
2023-01-04T20:29:24.740Z,97.30
2023-01-04T20:31:53.127Z,97.30
2023-01-04T20:34:24.752Z,97.40
2023-01-04T20:36:56.283Z,97.30
2023-01-04T20:39:25.025Z,97.30
2023-01-04T20:42:12.170Z,97.20
2023-01-04T20:44:40.545Z,97.20
2023-01-04T20:47:09.148Z,97.10
2023-01-04T20:49:37.697Z,97.10
2023-01-04T20:52:08.100Z,97.10
2023-01-04T20:54:36.707Z,97.10
2023-01-04T20:57:06.626Z,97.00
2023-01-04T20:59:35.159Z,97.00
2023-01-04T21:02:05.028Z,97.10
2023-01-04T21:04:34.031Z,97.00
2023-01-04T21:07:02.755Z,97.00
2023-01-04T21:09:31.412Z,97.00
2023-01-04T21:12:05.014Z,97.00
2023-01-04T21:14:38.299Z,97.00
2023-01-04T21:17:06.863Z,96.90
2023-01-04T21:19:35.687Z,96.90
2023-01-04T21:22:04.172Z,96.90
2023-01-04T21:24:33.369Z,96.90
2023-01-04T21:27:04.838Z,96.90
2023-01-04T21:29:33.231Z,96.90
2023-01-04T21:32:03.206Z,96.90
2023-01-04T21:34:31.646Z,96.80
2023-01-04T21:37:04.370Z,96.80
2023-01-04T21:39:32.761Z,96.80
2023-01-04T21:42:01.103Z,96.80
2023-01-04T21:44:30.726Z,96.80
2023-01-04T21:46:59.113Z,96.80
2023-01-04T21:49:28.911Z,96.80
2023-01-04T21:51:57.235Z,96.80
2023-01-04T21:54:25.580Z,97.10
2023-01-04T21:56:53.995Z,96.80
2023-01-04T21:59:22.335Z,96.70
2023-01-04T22:01:50.743Z,96.70
2023-01-04T22:04:22.197Z,96.80
2023-01-04T22:06:51.958Z,96.80
2023-01-04T22:09:20.346Z,96.80
2023-01-04T22:11:50.079Z,96.80
2023-01-04T22:14:18.623Z,96.90
2023-01-04T22:16:47.002Z,96.90
2023-01-04T22:19:17.110Z,97.00
2023-01-04T22:21:45.458Z,97.00
2023-01-04T22:24:15.556Z,97.00
2023-01-04T22:26:44.556Z,97.00
2023-01-04T22:29:12.887Z,96.90
2023-01-04T22:31:41.314Z,96.90
2023-01-04T22:34:09.713Z,96.90
2023-01-04T22:36:38.135Z,96.90
2023-01-04T22:39:06.967Z,96.90
2023-01-04T22:41:36.623Z,96.90
2023-01-04T22:44:06.308Z,96.80
2023-01-04T22:46:35.234Z,96.80
2023-01-04T22:49:03.582Z,96.80
2023-01-04T22:51:32.251Z,96.90
2023-01-04T22:54:05.673Z,96.80
2023-01-04T22:56:34.134Z,96.70
2023-01-04T22:59:03.838Z,96.60
2023-01-04T23:01:33.063Z,96.50
2023-01-04T23:04:01.898Z,96.50
2023-01-04T23:06:30.685Z,96.50
2023-01-04T23:09:00.100Z,96.40
2023-01-04T23:11:28.871Z,96.40
2023-01-04T23:13:57.375Z,96.40
2023-01-04T23:16:32.288Z,96.40
2023-01-04T23:19:01.719Z,96.40
2023-01-04T23:21:30.190Z,96.40
2023-01-04T23:23:58.527Z,96.40
2023-01-04T23:26:27.482Z,96.40
2023-01-04T23:28:56.122Z,96.40
2023-01-04T23:31:27.025Z,96.40
2023-01-04T23:33:56.769Z,96.40
2023-01-04T23:36:25.921Z,96.40
2023-01-04T23:38:54.981Z,96.40
2023-01-04T23:41:44.355Z,96.40
2023-01-04T23:44:14.470Z,96.40
2023-01-04T23:46:44.283Z,96.40
2023-01-04T23:49:12.818Z,96.40
2023-01-04T23:51:42.520Z,96.30
2023-01-04T23:54:11.199Z,96.40
2023-01-04T23:56:39.620Z,96.30
2023-01-04T23:59:07.913Z,96.30
